Time;durP1;ratioP1;P1;durP2;ratioP2;P2;SDS_P1;SDS_P2;PMS_P1;PMS_P2;Temp;Humidity;BMP_temperature;BMP_pressure;BME280_temperature;BME280_humidity;BME280_pressure;Samples;Min_cycle;Max_cycle;Signal;HPM_P1;HPM_P2
2020/12/17 00:02:11;;;;;;;;;;;;;;;;;;5035246;28;1382;-85
2020/12/17 00:04:36;;;;;;;;;;;;;;;;;;5050711;28;1205;-84
2020/12/17 00:07:01;;;;;;;;;;;;;;;;;;5035247;28;929;-84
2020/12/17 00:09:27;;;;;;;;;;;;;;;;;;5034222;28;1141;-85
2020/12/17 00:11:54;;;;;;;;;;;;;;;;;;5033707;28;1481;-84
2020/12/17 00:14:19;;;;;;;;;;;;;;;;;;5035122;28;865;-85
2020/12/17 00:16:44;;;;;;;;;;;;;;;;;;5033837;28;1898;-85
2020/12/17 00:19:10;;;;;;;;;;;;;;;;;;5033658;28;978;-85
2020/12/17 00:21:35;;;;;;;;;;;;;;;;;;5035009;28;1355;-85
2020/12/17 00:24:01;;;;;;;;;;;;;;;;;;5033633;28;840;-85
2020/12/17 00:26:26;;;;;;;;;;;;;;;;;;5033534;28;1292;-85
2020/12/17 00:28:52;;;;;;;;;;;;;;;;;;5034764;28;813;-84
2020/12/17 00:31:18;;;;;;;;;;;;;;;;;;5033424;28;1412;-85
2020/12/17 00:33:43;;;;;;;;;;;;;;;;;;5034855;28;900;-85
2020/12/17 00:36:08;;;;;;;;;;;;;;;;;;5033390;28;1894;-85
2020/12/17 00:38:34;;;;;;;;;;;;;;;;;;5033346;28;1368;-86
2020/12/17 00:40:59;;;;;;;;;;;;;;;;;;5033116;28;1109;-85
2020/12/17 00:43:24;;;;;;;;;;;;;;;;;;5033106;28;1372;-85
2020/12/17 00:45:50;;;;;;;;;;;;;;;;;;5034447;28;861;-84
2020/12/17 00:48:15;;;;;;;;;;;;;;;;;;5051507;28;1254;-85
2020/12/17 00:50:40;;;;;;;;;;;;;;;;;;5032970;28;1336;-85
2020/12/17 00:53:05;;;;;;;;;;;;;;;;;;5033672;28;1462;-85
2020/12/17 00:55:30;;;;;;;;;;;;;;;;;;5033942;28;1902;-86
2020/12/17 00:57:56;;;;;;;;;;;;;;;;;;5033666;28;1337;-85
2020/12/17 01:00:21;;;;;;;;;;;;;;;;;;5034572;28;924;-85
2020/12/17 01:02:46;;;;;;;;;;;;;;;;;;5050567;28;1431;-85
2020/12/17 01:05:11;;;;;;;;;;;;;;;;;;5034846;28;1145;-85
2020/12/17 01:07:37;;;;;;;;;;;;;;;;;;5049618;28;1273;-85
2020/12/17 01:10:03;;;;;;;;;;;;;;;;;;5034416;28;822;-85
2020/12/17 01:12:29;;;;;;;;;;;;;;;;;;5033478;28;1301;-85
2020/12/17 01:14:54;;;;;;;;;;;;;;;;;;5033796;28;806;-85
2020/12/17 01:17:19;;;;;;;;;;;;;;;;;;5033235;28;1974;-85
2020/12/17 01:19:45;;;;;;;;;;;;;;;;;;5034497;28;849;-85
2020/12/17 01:22:10;;;;;;;;;;;;;;;;;;5033594;28;1264;-85
2020/12/17 01:24:35;;;;;;;;;;;;;;;;;;5033314;28;1277;-85
2020/12/17 01:27:00;;;;;;;;;;;;;;;;;;5050295;28;1226;-86
2020/12/17 01:29:26;;;;;;;;;;;;;;;;;;5049786;28;1295;-85
2020/12/17 01:32:00;;;;;;;;;;;;;;;;;;5033178;28;1567;-85
2020/12/17 01:34:25;;;;;;;;;;;;;;;;;;5033242;28;1495;-85
2020/12/17 01:36:51;;;;;;;;;;;;;;;;;;5034357;28;1894;-85
2020/12/17 01:39:17;;;;;;;;;;;;;;;;;;5033238;28;866;-85
2020/12/17 01:41:42;;;;;;;;;;;;;;;;;;5049668;28;1274;-85
2020/12/17 01:44:07;;;;;;;;;;;;;;;;;;5034313;28;889;-85
2020/12/17 01:46:32;;;;;;;;;;;;;;;;;;5033839;28;1351;-86
2020/12/17 01:49:00;;;;;;;;;;;;;;;;;;5049721;28;1013;-85
2020/12/17 01:51:25;;;;;;;;;;;;;;;;;;5032871;28;1296;-86
2020/12/17 01:53:51;;;;;;;;;;;;;;;;;;5033382;28;893;-84
2020/12/17 01:56:24;;;;;;;;;;;;;;;;;;5032948;28;1905;-85
2020/12/17 01:58:53;;;;;;;;;;;;;;;;;;5035029;28;1771;-84
2020/12/17 02:01:18;;;;;;;;;;;;;;;;;;5032827;28;1294;-85
2020/12/17 02:03:44;;;;;;;;;;;;;;;;;;5034245;28;972;-84
2020/12/17 02:06:09;;;;;;;;;;;;;;;;;;5034212;28;798;-85
2020/12/17 02:08:36;;;;;;;;;;;;;;;;;;5032885;28;1252;-85
2020/12/17 02:11:01;;;;;;;;;;;;;;;;;;5033933;28;806;-86
2020/12/17 02:13:33;;;;;;;;;;;;;;;;;;5033141;28;1483;-86
2020/12/17 02:15:59;;;;;;;;;;;;;;;;;;5034194;28;1890;-83
2020/12/17 02:18:24;;;;;;;;;;;;;;;;;;5034577;28;846;-84
2020/12/17 02:20:50;;;;;;;;;;;;;;;;;;5036604;28;917;-84
2020/12/17 02:23:15;;;;;;;;;;;;;;;;;;5036532;28;1451;-83
2020/12/17 02:25:41;;;;;;;;;;;;;;;;;;5053331;28;1175;-84
2020/12/17 02:28:06;;;;;;;;;;;;;;;;;;5036674;28;916;-84
2020/12/17 02:30:31;;;;;;;;;;;;;;;;;;5037631;28;825;-84
2020/12/17 02:32:56;;;;;;;;;;;;;;;;;;5037611;28;1312;-85
2020/12/17 02:35:21;;;;;;;;;;;;;;;;;;5036535;28;1894;-84
2020/12/17 02:37:47;;;;;;;;;;;;;;;;;;5037563;28;885;-85
2020/12/17 02:40:12;;;;;;;;;;;;;;;;;;5036004;28;1374;-84
2020/12/17 02:42:37;;;;;;;;;;;;;;;;;;5037615;28;1290;-85
2020/12/17 02:45:03;;;;;;;;;;;;;;;;;;5036207;28;1224;-84
2020/12/17 02:47:28;;;;;;;;;;;;;;;;;;5037552;28;805;-85
2020/12/17 02:49:53;;;;;;;;;;;;;;;;;;5037291;28;810;-84
2020/12/17 02:52:18;;;;;;;;;;;;;;;;;;5037639;28;1321;-86
2020/12/17 02:54:44;;;;;;;;;;;;;;;;;;5037335;28;893;-84
2020/12/17 02:57:09;;;;;;;;;;;;;;;;;;5036242;28;1890;-85
2020/12/17 02:59:34;;;;;;;;;;;;;;;;;;5052843;28;1343;-85
2020/12/17 03:01:59;;;;;;;;;;;;;;;;;;5037421;28;1319;-84
2020/12/17 03:04:25;;;;;;;;;;;;;;;;;;5036511;28;1117;-83
2020/12/17 03:06:50;;;;;;;;;;;;;;;;;;5052932;28;1372;-84
2020/12/17 03:09:16;;;;;;;;;;;;;;;;;;5036176;28;1232;-84
2020/12/17 03:11:41;;;;;;;;;;;;;;;;;;5038154;28;1306;-84
2020/12/17 03:14:06;;;;;;;;;;;;;;;;;;5037421;28;1104;-83
2020/12/17 03:16:32;;;;;;;;;;;;;;;;;;5039304;28;1867;-85
2020/12/17 03:18:57;;;;;;;;;;;;;;;;;;5040181;28;1457;-84
2020/12/17 03:21:23;;;;;;;;;;;;;;;;;;5036970;28;1376;-84
2020/12/17 03:23:48;;;;;;;;;;;;;;;;;;5035954;28;1372;-84
2020/12/17 03:26:13;;;;;;;;;;;;;;;;;;5035733;28;1264;-85
2020/12/17 03:28:39;;;;;;;;;;;;;;;;;;5036861;28;853;-84
2020/12/17 03:31:04;;;;;;;;;;;;;;;;;;5034299;28;1243;-85
2020/12/17 03:33:30;;;;;;;;;;;;;;;;;;5036421;28;1401;-84
2020/12/17 03:35:55;;;;;;;;;;;;;;;;;;5035228;28;1890;-84
2020/12/17 03:38:20;;;;;;;;;;;;;;;;;;5036411;28;902;-84
2020/12/17 03:40:45;;;;;;;;;;;;;;;;;;5051417;28;1277;-84
2020/12/17 03:43:11;;;;;;;;;;;;;;;;;;5036302;28;1371;-84
2020/12/17 03:45:36;;;;;;;;;;;;;;;;;;5035322;28;893;-84
2020/12/17 03:48:01;;;;;;;;;;;;;;;;;;5035377;28;1224;-85
2020/12/17 03:50:26;;;;;;;;;;;;;;;;;;5034712;28;2037;-85
2020/12/17 03:52:52;;;;;;;;;;;;;;;;;;5034843;28;1375;-84
2020/12/17 03:55:17;;;;;;;;;;;;;;;;;;5035045;28;1898;-84
2020/12/17 03:57:42;;;;;;;;;;;;;;;;;;5036060;28;905;-84
2020/12/17 04:00:07;;;;;;;;;;;;;;;;;;5035864;28;978;-85
2020/12/17 04:02:33;;;;;;;;;;;;;;;;;;5051265;28;1454;-84
2020/12/17 04:04:58;;;;;;;;;;;;;;;;;;5034881;28;1417;-85
2020/12/17 04:07:24;;;;;;;;;;;;;;;;;;5034610;28;1359;-84
2020/12/17 04:09:49;;;;;;;;;;;;;;;;;;5035649;28;869;-84
2020/12/17 04:12:14;;;;;;;;;;;;;;;;;;5051072;28;1462;-84
2020/12/17 04:14:40;;;;;;;;;;;;;;;;;;5035853;28;916;-84
2020/12/17 04:17:05;;;;;;;;;;;;;;;;;;5035582;28;1961;-84
2020/12/17 04:19:30;;;;;;;;;;;;;;;;;;5034554;28;1427;-84
2020/12/17 04:21:55;;;;;;;;;;;;;;;;;;5034281;28;1296;-84
2020/12/17 04:24:21;;;;;;;;;;;;;;;;;;5035446;28;810;-85
2020/12/17 04:26:52;;;;;;;;;;;;;;;;;;5034194;28;1120;-84
2020/12/17 04:29:18;;;;;;;;;;;;;;;;;;5034187;28;1657;-84
2020/12/17 04:31:43;;;;;;;;;;;;;;;;;;5035340;28;1380;-84
2020/12/17 04:34:09;;;;;;;;;;;;;;;;;;5035893;28;1082;-85
2020/12/17 04:36:34;;;;;;;;;;;;;;;;;;5035335;28;1949;-84
2020/12/17 04:38:59;;;;;;;;;;;;;;;;;;5034316;28;1768;-84
2020/12/17 04:41:25;;;;;;;;;;;;;;;;;;5033633;28;1439;-84
2020/12/17 04:43:50;;;;;;;;;;;;;;;;;;5035359;28;857;-84
2020/12/17 04:46:17;;;;;;;;;;;;;;;;;;5035305;28;1050;-84
2020/12/17 04:48:44;;;;;;;;;;;;;;;;;;5035318;28;794;-84
2020/12/17 04:51:10;;;;;;;;;;;;;;;;;;5033975;28;1541;-84
2020/12/17 04:53:36;;;;;;;;;;;;;;;;;;5034986;28;896;-84
2020/12/17 04:56:02;;;;;;;;;;;;;;;;;;5033871;28;1886;-84
2020/12/17 04:58:30;;;;;;;;;;;;;;;;;;5034865;28;905;-83
2020/12/17 05:00:56;;;;;;;;;;;;;;;;;;5033490;28;811;-84
2020/12/17 05:03:22;;;;;;;;;;;;;;;;;;5034849;28;1345;-84
2020/12/17 05:05:51;;;;;;;;;;;;;;;;;;5035036;28;896;-83
2020/12/17 05:08:17;;;;;;;;;;;;;;;;;;5034785;28;865;-83
2020/12/17 05:10:42;;;;;;;;;;;;;;;;;;5033446;28;1282;-83
2020/12/17 05:13:07;;;;;;;;;;;;;;;;;;5034709;28;1306;-83
2020/12/17 05:15:32;;;;;;;;;;;;;;;;;;5033624;28;1952;-83
2020/12/17 05:17:58;;;;;;;;;;;;;;;;;;5034878;28;791;-82
2020/12/17 05:20:26;;;;;;;;;;;;;;;;;;5034471;28;890;-83
2020/12/17 05:22:51;;;;;;;;;;;;;;;;;;5033642;28;1305;-83
2020/12/17 05:25:16;;;;;;;;;;;;;;;;;;5033416;28;1595;-83
2020/12/17 05:27:42;;;;;;;;;;;;;;;;;;5034930;28;850;-83
2020/12/17 05:30:07;;;;;;;;;;;;;;;;;;5033158;28;1243;-83
2020/12/17 05:32:33;;;;;;;;;;;;;;;;;;5033429;28;1309;-83
2020/12/17 05:35:00;;;;;;;;;;;;;;;;;;5033224;28;1024;-83
2020/12/17 05:37:27;;;;;;;;;;;;;;;;;;5033007;28;1894;-83
2020/12/17 05:39:53;;;;;;;;;;;;;;;;;;5033019;28;905;-83
2020/12/17 05:42:19;;;;;;;;;;;;;;;;;;5033545;28;1494;-84
2020/12/17 05:44:44;;;;;;;;;;;;;;;;;;5033605;28;1229;-84
2020/12/17 05:47:13;;;;;;;;;;;;;;;;;;5033389;28;957;-83
2020/12/17 05:49:38;;;;;;;;;;;;;;;;;;5033057;28;1214;-83
2020/12/17 05:52:07;;;;;;;;;;;;;;;;;;5034171;28;1277;-84
2020/12/17 05:54:32;;;;;;;;;;;;;;;;;;5038242;28;798;-83
2020/12/17 05:57:05;;;;;;;;;;;;;;;;;;5038350;28;1941;-84
2020/12/17 05:59:30;;;;;;;;;;;;;;;;;;5037085;28;1691;-83
2020/12/17 06:01:55;;;;;;;;;;;;;;;;;;5038089;28;1294;-83
2020/12/17 06:04:21;;;;;;;;;;;;;;;;;;5038118;28;916;-84
2020/12/17 06:06:47;;;;;;;;;;;;;;;;;;5038147;28;900;-83
2020/12/17 06:09:20;;;;;;;;;;;;;;;;;;5036916;28;1212;-83
2020/12/17 06:11:45;;;;;;;;;;;;;;;;;;5036662;28;1375;-83
2020/12/17 06:14:10;;;;;;;;;;;;;;;;;;5038125;28;932;-83
2020/12/17 06:16:36;;;;;;;;;;;;;;;;;;5036677;28;1949;-83
2020/12/17 06:19:02;;;;;;;;;;;;;;;;;;5037827;28;885;-83
2020/12/17 06:21:27;;;;;;;;;;;;;;;;;;5036624;28;1320;-84
2020/12/17 06:23:56;;;;;;;;;;;;;;;;;;5036451;28;1274;-83
2020/12/17 06:26:23;;;;;;;;;;;;;;;;;;5036466;28;1352;-84
2020/12/17 06:28:49;;;;;;;;;;;;;;;;;;5036341;28;1224;-83
2020/12/17 06:31:18;;;;;;;;;;;;;;;;;;5036153;28;1373;-84
2020/12/17 06:33:44;;;;;;;;;;;;;;;;;;5037415;28;731;-83
2020/12/17 06:36:15;;;;;;;;;;;;;;;;;;5037467;28;1934;-84
2020/12/17 06:38:41;;;;;;;;;;;;;;;;;;5036419;28;1249;-84
2020/12/17 06:41:17;;;;;;;;;;;;;;;;;;5036341;28;913;-83
2020/12/17 06:43:42;;;;;;;;;;;;;;;;;;5036120;28;829;-83
2020/12/17 06:46:27;;;;;;;;;;;;;;;;;;5037168;28;850;-83
2020/12/17 06:48:53;;;;;;;;;;;;;;;;;;5035972;28;1228;-83
2020/12/17 06:51:30;;;;;;;;;;;;;;;;;;5037066;28;1283;-83
2020/12/17 06:53:55;;;;;;;;;;;;;;;;;;5035989;28;803;-83
2020/12/17 06:56:21;;;;;;;;;;;;;;;;;;5035793;28;1894;-83
2020/12/17 06:58:46;;;;;;;;;;;;;;;;;;5036845;28;835;-83
2020/12/17 07:01:21;;;;;;;;;;;;;;;;;;5035547;28;1298;-84
2020/12/17 07:03:47;;;;;;;;;;;;;;;;;;5035307;28;1299;-83
2020/12/17 07:06:12;;;;;;;;;;;;;;;;;;5034807;28;1320;-83
2020/12/17 07:08:38;;;;;;;;;;;;;;;;;;5036838;28;908;-83
2020/12/17 07:11:03;;;;;;;;;;;;;;;;;;5036960;28;905;-83
2020/12/17 07:13:38;;;;;;;;;;;;;;;;;;5036743;28;1464;-83
2020/12/17 07:16:04;;;;;;;;;;;;;;;;;;5035443;28;1906;-83
2020/12/17 07:18:29;;;;;;;;;;;;;;;;;;5035408;28;1882;-83
2020/12/17 07:21:02;;;;;;;;;;;;;;;;;;5035575;28;1062;-83
2020/12/17 07:23:30;;;;;;;;;;;;;;;;;;5035304;28;1434;-83
2020/12/17 07:25:56;;;;;;;;;;;;;;;;;;5036725;28;968;-83
2020/12/17 07:28:25;;;;;;;;;;;;;;;;;;5035200;28;1215;-84
2020/12/17 07:30:54;;;;;;;;;;;;;;;;;;5036297;28;893;-83
2020/12/17 07:33:49;;;;;;;;;;;;;;;;;;5035082;28;1505;-83
2020/12/17 07:36:16;;;;;;;;;;;;;;;;;;5019181;28;1886;-83
2020/12/17 07:38:41;;;;;;;;;;;;;;;;;;5036270;28;861;-84
2020/12/17 07:41:21;;;;;;;;;;;;;;;;;;5035196;28;1313;-83
2020/12/17 07:43:46;;;;;;;;;;;;;;;;;;5034906;28;1329;-83
2020/12/17 07:46:11;;;;;;;;;;;;;;;;;;5034883;28;1077;-83
2020/12/17 07:48:54;;;;;;;;;;;;;;;;;;5034906;28;1201;-83
2020/12/17 07:51:20;;;;;;;;;;;;;;;;;;5034625;28;1309;-83
2020/12/17 07:53:46;;;;;;;;;;;;;;;;;;5034728;28;1020;-83
2020/12/17 07:56:12;;;;;;;;;;;;;;;;;;5036072;28;1906;-83
2020/12/17 07:58:37;;;;;;;;;;;;;;;;;;5035197;28;1225;-83
2020/12/17 08:01:03;;;;;;;;;;;;;;;;;;5034834;28;1114;-83
2020/12/17 08:03:31;;;;;;;;;;;;;;;;;;5035994;28;1392;-84
2020/12/17 08:06:04;;;;;;;;;;;;;;;;;;5034584;28;849;-83
2020/12/17 08:08:29;;;;;;;;;;;;;;;;;;5035650;28;837;-83
2020/12/17 08:10:54;;;;;;;;;;;;;;;;;;5034305;28;1232;-83
2020/12/17 08:13:20;;;;;;;;;;;;;;;;;;5035639;28;1348;-84
2020/12/17 08:15:51;;;;;;;;;;;;;;;;;;5034066;28;1969;-84
2020/12/17 08:18:21;;;;;;;;;;;;;;;;;;5034148;28;884;-84
2020/12/17 08:20:46;;;;;;;;;;;;;;;;;;5035764;28;837;-83
2020/12/17 08:23:17;;;;;;;;;;;;;;;;;;5034598;28;1450;-84
2020/12/17 08:25:43;;;;;;;;;;;;;;;;;;5035712;28;952;-84
2020/12/17 08:28:09;;;;;;;;;;;;;;;;;;5035902;28;868;-84
2020/12/17 08:30:34;;;;;;;;;;;;;;;;;;5035371;28;830;-83
2020/12/17 08:33:00;;;;;;;;;;;;;;;;;;5035389;28;1320;-84
2020/12/17 08:35:26;;;;;;;;;;;;;;;;;;5035028;28;1898;-83
2020/12/17 08:37:55;;;;;;;;;;;;;;;;;;5033831;28;1005;-83
2020/12/17 08:40:25;;;;;;;;;;;;;;;;;;5033768;28;1248;-84
2020/12/17 08:42:55;;;;;;;;;;;;;;;;;;5034898;28;1285;-83
2020/12/17 08:45:21;;;;;;;;;;;;;;;;;;5033827;28;1256;-84
2020/12/17 08:47:49;;;;;;;;;;;;;;;;;;5035045;28;827;-84
2020/12/17 08:50:15;;;;;;;;;;;;;;;;;;5033475;28;1349;-84
2020/12/17 08:52:42;;;;;;;;;;;;;;;;;;5034981;28;1285;-84
2020/12/17 08:55:08;;;;;;;;;;;;;;;;;;5033536;28;1224;-84
2020/12/17 08:57:33;;;;;;;;;;;;;;;;;;5033416;28;1886;-83
2020/12/17 08:59:58;;;;;;;;;;;;;;;;;;5034619;28;944;-84
2020/12/17 09:02:28;;;;;;;;;;;;;;;;;;5033618;28;1466;-84
2020/12/17 09:04:54;;;;;;;;;;;;;;;;;;5033472;28;1595;-83
2020/12/17 09:07:22;;;;;;;;;;;;;;;;;;5034781;28;758;-84
2020/12/17 09:09:48;;;;;;;;;;;;;;;;;;5034685;28;905;-84
2020/12/17 09:12:13;;;;;;;;;;;;;;;;;;5035080;28;1375;-84
2020/12/17 09:14:39;;;;;;;;;;;;;;;;;;5034762;28;893;-84
2020/12/17 09:17:08;;;;;;;;;;;;;;;;;;5033389;28;1945;-84
2020/12/17 09:19:34;;;;;;;;;;;;;;;;;;5033386;28;1263;-83
2020/12/17 09:22:00;;;;;;;;;;;;;;;;;;5033252;28;1351;-84
2020/12/17 09:24:27;;;;;;;;;;;;;;;;;;5034621;28;814;-85
2020/12/17 09:26:53;;;;;;;;;;;;;;;;;;5034413;28;837;-83
2020/12/17 09:29:18;;;;;;;;;;;;;;;;;;5033279;28;791;-83
2020/12/17 09:31:44;;;;;;;;;;;;;;;;;;5034297;28;1402;-84
2020/12/17 09:34:13;;;;;;;;;;;;;;;;;;5034723;28;908;-84
2020/12/17 09:36:40;;;;;;;;;;;;;;;;;;5034734;28;1941;-84
2020/12/17 09:39:08;;;;;;;;;;;;;;;;;;5033043;28;885;-84
2020/12/17 09:41:34;;;;;;;;;;;;;;;;;;5032976;28;1540;-84
2020/12/17 09:43:59;;;;;;;;;;;;;;;;;;5034476;28;841;-84
2020/12/17 09:46:25;;;;;;;;;;;;;;;;;;5034370;28;948;-84
2020/12/17 09:48:50;;;;;;;;;;;;;;;;;;5033507;28;1185;-84
2020/12/17 09:51:19;;;;;;;;;;;;;;;;;;5032925;28;1410;-84
2020/12/17 09:53:45;;;;;;;;;;;;;;;;;;5034278;28;836;-84
2020/12/17 09:56:11;;;;;;;;;;;;;;;;;;5033216;28;1898;-84
2020/12/17 09:58:36;;;;;;;;;;;;;;;;;;5033264;28;1416;-84
2020/12/17 10:01:03;;;;;;;;;;;;;;;;;;5033050;28;1228;-82
2020/12/17 10:03:28;;;;;;;;;;;;;;;;;;5034322;28;1324;-81
2020/12/17 10:05:54;;;;;;;;;;;;;;;;;;5032838;28;1430;-82
2020/12/17 10:08:20;;;;;;;;;;;;;;;;;;5032784;28;1348;-82
2020/12/17 10:10:45;;;;;;;;;;;;;;;;;;5032946;28;1177;-82
2020/12/17 10:13:10;;;;;;;;;;;;;;;;;;5032813;28;1419;-82
2020/12/17 10:15:36;;;;;;;;;;;;;;;;;;5034119;28;1883;-82
2020/12/17 10:18:02;;;;;;;;;;;;;;;;;;5034053;28;1004;-82
2020/12/17 10:20:28;;;;;;;;;;;;;;;;;;5032691;28;861;-81
2020/12/17 10:22:53;;;;;;;;;;;;;;;;;;5033027;28;1341;-80
2020/12/17 10:25:21;;;;;;;;;;;;;;;;;;5032961;28;842;-81
2020/12/17 10:27:46;;;;;;;;;;;;;;;;;;5032996;28;1101;-81
2020/12/17 10:30:12;;;;;;;;;;;;;;;;;;5032727;28;1320;-81
2020/12/17 10:32:43;;;;;;;;;;;;;;;;;;5032875;28;1316;-81
2020/12/17 10:35:09;;;;;;;;;;;;;;;;;;5032771;28;853;-81
2020/12/17 10:37:34;;;;;;;;;;;;;;;;;;5033786;28;1971;-81
2020/12/17 10:40:00;;;;;;;;;;;;;;;;;;5034952;28;1305;-81
2020/12/17 10:42:25;;;;;;;;;;;;;;;;;;5037607;28;1322;-80
2020/12/17 10:44:51;;;;;;;;;;;;;;;;;;5037756;28;1135;-80
2020/12/17 10:47:18;;;;;;;;;;;;;;;;;;5026534;28;1465;-80
2020/12/17 10:49:44;;;;;;;;;;;;;;;;;;5021500;28;1271;-80
2020/12/17 10:52:09;;;;;;;;;;;;;;;;;;5017993;28;1302;-81
2020/12/17 10:54:35;;;;;;;;;;;;;;;;;;5017624;28;877;-79
2020/12/17 10:57:01;;;;;;;;;;;;;;;;;;5016278;28;1902;-79
2020/12/17 10:59:26;;;;;;;;;;;;;;;;;;5017620;28;861;-79
2020/12/17 11:01:55;;;;;;;;;;;;;;;;;;5017829;28;1390;-79
2020/12/17 11:04:21;;;;;;;;;;;;;;;;;;5017328;28;877;-79
2020/12/17 11:06:46;;;;;;;;;;;;;;;;;;5017397;28;842;-78
2020/12/17 11:09:14;;;;;;;;;;;;;;;;;;5016460;28;853;-78
2020/12/17 11:11:40;;;;;;;;;;;;;;;;;;5015543;28;1364;-79
2020/12/17 11:14:05;;;;;;;;;;;;;;;;;;5015413;28;1307;-78
2020/12/17 11:16:30;;;;;;;;;;;;;;;;;;5015402;28;1898;-79
2020/12/17 11:18:59;;;;;;;;;;;;;;;;;;5015193;28;1400;-79
2020/12/17 11:21:25;;;;;;;;;;;;;;;;;;5016305;28;1320;-79
2020/12/17 11:23:50;;;;;;;;;;;;;;;;;;5016492;28;825;-79
2020/12/17 11:26:15;;;;;;;;;;;;;;;;;;5015519;28;628;-79
2020/12/17 11:28:41;;;;;;;;;;;;;;;;;;5016542;28;826;-79
2020/12/17 11:31:06;;;;;;;;;;;;;;;;;;5016351;28;866;-79
2020/12/17 11:33:31;;;;;;;;;;;;;;;;;;5015711;28;1474;-79
2020/12/17 11:35:57;;;;;;;;;;;;;;;;;;5016068;28;1894;-79
2020/12/17 11:38:22;;;;;;;;;;;;;;;;;;5015583;28;1220;-79
2020/12/17 11:40:47;;;;;;;;;;;;;;;;;;5016590;28;897;-79
2020/12/17 11:43:13;;;;;;;;;;;;;;;;;;5015421;28;1405;-79
2020/12/17 11:45:38;;;;;;;;;;;;;;;;;;5018604;28;1043;-79
2020/12/17 11:48:03;;;;;;;;;;;;;;;;;;5017558;28;1521;-79
2020/12/17 11:50:29;;;;;;;;;;;;;;;;;;5031616;28;1489;-79
2020/12/17 11:52:54;;;;;;;;;;;;;;;;;;5037920;28;1340;-79
2020/12/17 11:55:22;;;;;;;;;;;;;;;;;;5036652;28;798;-83
2020/12/17 11:57:47;;;;;;;;;;;;;;;;;;5035743;28;1933;-81
2020/12/17 12:00:13;;;;;;;;;;;;;;;;;;5026593;28;2191;-81
2020/12/17 12:02:38;;;;;;;;;;;;;;;;;;5032213;28;1431;-81
2020/12/17 12:05:04;;;;;;;;;;;;;;;;;;5035583;28;793;-81
2020/12/17 12:07:29;;;;;;;;;;;;;;;;;;5035511;28;888;-81
2020/12/17 12:09:55;;;;;;;;;;;;;;;;;;5035212;28;959;-80
2020/12/17 12:12:20;;;;;;;;;;;;;;;;;;5035303;28;1379;-80
2020/12/17 12:14:45;;;;;;;;;;;;;;;;;;5033824;28;838;-80
2020/12/17 12:17:11;;;;;;;;;;;;;;;;;;5034103;28;1949;-80
2020/12/17 12:19:36;;;;;;;;;;;;;;;;;;5034043;28;1102;-80
2020/12/17 12:22:01;;;;;;;;;;;;;;;;;;5036033;28;1345;-80
2020/12/17 12:24:27;;;;;;;;;;;;;;;;;;5035577;28;807;-80
2020/12/17 12:26:52;;;;;;;;;;;;;;;;;;5028856;28;1242;-80
2020/12/17 12:29:17;;;;;;;;;;;;;;;;;;5050314;28;1302;-80
2020/12/17 12:31:43;;;;;;;;;;;;;;;;;;5021415;28;1479;-80
2020/12/17 12:34:08;;;;;;;;;;;;;;;;;;5022349;28;1296;-80
2020/12/17 12:36:33;;;;;;;;;;;;;;;;;;5027099;28;1886;-80
2020/12/17 12:38:59;;;;;;;;;;;;;;;;;;5033738;28;1422;-80
2020/12/17 12:41:24;;;;;;;;;;;;;;;;;;5033560;28;1290;-79
2020/12/17 12:43:49;;;;;;;;;;;;;;;;;;5033725;28;957;-79
2020/12/17 12:46:18;;;;;;;;;;;;;;;;;;5048002;28;1246;-80
2020/12/17 12:48:43;;;;;;;;;;;;;;;;;;5022407;28;1227;-80
2020/12/17 12:51:08;;;;;;;;;;;;;;;;;;5014646;28;877;-80
2020/12/17 12:53:33;;;;;;;;;;;;;;;;;;5014650;28;1419;-80
2020/12/17 12:55:59;;;;;;;;;;;;;;;;;;5013318;28;1894;-79
2020/12/17 12:58:24;;;;;;;;;;;;;;;;;;5014724;28;870;-80
2020/12/17 13:00:50;;;;;;;;;;;;;;;;;;5014379;28;869;-80
2020/12/17 13:03:15;;;;;;;;;;;;;;;;;;5012385;28;1495;-80
2020/12/17 13:05:41;;;;;;;;;;;;;;;;;;5013511;28;1239;-79
2020/12/17 13:08:06;;;;;;;;;;;;;;;;;;5014763;28;941;-80
2020/12/17 13:10:34;;;;;;;;;;;;;;;;;;5014710;28;853;-80
2020/12/17 13:12:59;;;;;;;;;;;;;;;;;;5013418;28;1362;-81
2020/12/17 13:15:24;;;;;;;;;;;;;;;;;;5014661;28;932;-80
2020/12/17 13:17:50;;;;;;;;;;;;;;;;;;5013171;28;1883;-80
2020/12/17 13:20:15;;;;;;;;;;;;;;;;;;5014542;28;838;-80
2020/12/17 13:22:40;;;;;;;;;;;;;;;;;;5013059;28;1341;-80
2020/12/17 13:25:06;;;;;;;;;;;;;;;;;;5014755;28;815;-80
2020/12/17 13:27:31;;;;;;;;;;;;;;;;;;5013209;28;809;-79
2020/12/17 13:29:56;;;;;;;;;;;;;;;;;;5012825;28;1343;-80
2020/12/17 13:32:22;;;;;;;;;;;;;;;;;;5012998;28;1306;-79
2020/12/17 13:34:47;;;;;;;;;;;;;;;;;;5014384;28;873;-80
2020/12/17 13:37:12;;;;;;;;;;;;;;;;;;5014152;28;1898;-79
2020/12/17 13:39:38;;;;;;;;;;;;;;;;;;5013345;28;1361;-80
2020/12/17 13:42:03;;;;;;;;;;;;;;;;;;5012996;28;1320;-80
2020/12/17 13:44:28;;;;;;;;;;;;;;;;;;5014103;28;905;-80
2020/12/17 13:46:54;;;;;;;;;;;;;;;;;;5012515;28;1399;-80
2020/12/17 13:49:20;;;;;;;;;;;;;;;;;;5012736;28;1326;-80
2020/12/17 13:51:45;;;;;;;;;;;;;;;;;;5012285;28;1293;-79
2020/12/17 13:54:10;;;;;;;;;;;;;;;;;;5013048;28;1260;-80
2020/12/17 13:56:38;;;;;;;;;;;;;;;;;;5012724;28;1963;-79
2020/12/17 13:59:03;;;;;;;;;;;;;;;;;;5014009;28;878;-80
2020/12/17 14:01:28;;;;;;;;;;;;;;;;;;5013664;28;1291;-80
2020/12/17 14:03:55;;;;;;;;;;;;;;;;;;5012985;28;1193;-79
2020/12/17 14:06:21;;;;;;;;;;;;;;;;;;5013960;28;904;-80
2020/12/17 14:08:46;;;;;;;;;;;;;;;;;;5012714;28;1255;-79
2020/12/17 14:11:16;;;;;;;;;;;;;;;;;;5013796;28;1384;-80
2020/12/17 14:13:41;;;;;;;;;;;;;;;;;;5014843;28;953;-80
2020/12/17 14:16:06;;;;;;;;;;;;;;;;;;5016278;28;1898;-80
2020/12/17 14:18:32;;;;;;;;;;;;;;;;;;5016742;28;885;-80
2020/12/17 14:20:57;;;;;;;;;;;;;;;;;;5016325;28;1081;-80
2020/12/17 14:23:22;;;;;;;;;;;;;;;;;;5016222;28;1556;-79
2020/12/17 14:25:47;;;;;;;;;;;;;;;;;;5017981;28;1421;-79
2020/12/17 14:28:13;;;;;;;;;;;;;;;;;;5035962;28;1263;-79
2020/12/17 14:30:38;;;;;;;;;;;;;;;;;;5037004;28;822;-79
2020/12/17 14:33:07;;;;;;;;;;;;;;;;;;5037154;28;1309;-84
2020/12/17 14:35:32;;;;;;;;;;;;;;;;;;5033307;28;1112;-89
2020/12/17 14:37:57;;;;;;;;;;;;;;;;;;5024248;28;1945;-87
2020/12/17 14:40:23;;;;;;;;;;;;;;;;;;5018656;28;1322;-86
2020/12/17 14:42:48;;;;;;;;;;;;;;;;;;5015913;28;1388;-86
2020/12/17 14:45:13;;;;;;;;;;;;;;;;;;5034116;28;1108;-86
2020/12/17 14:47:39;;;;;;;;;;;;;;;;;;5026377;28;1377;-81
2020/12/17 14:50:04;;;;;;;;;;;;;;;;;;5016838;28;928;-81
2020/12/17 14:52:30;;;;;;;;;;;;;;;;;;5017196;28;1379;-81
2020/12/17 14:54:55;;;;;;;;;;;;;;;;;;5018992;28;1352;-83
2020/12/17 14:57:20;;;;;;;;;;;;;;;;;;5025421;28;1883;-83
2020/12/17 14:59:45;;;;;;;;;;;;;;;;;;5015370;28;1310;-82
2020/12/17 15:02:11;;;;;;;;;;;;;;;;;;5020003;28;1492;-83
2020/12/17 15:04:37;;;;;;;;;;;;;;;;;;5022159;28;1223;-83
2020/12/17 15:07:02;;;;;;;;;;;;;;;;;;5015449;28;949;-83
2020/12/17 15:09:27;;;;;;;;;;;;;;;;;;5028714;28;1158;-83
2020/12/17 15:11:54;;;;;;;;;;;;;;;;;;5035156;28;1397;-83
2020/12/17 15:14:19;;;;;;;;;;;;;;;;;;5035118;28;1490;-83
2020/12/17 15:16:44;;;;;;;;;;;;;;;;;;5034156;28;1955;-83
2020/12/17 15:19:10;;;;;;;;;;;;;;;;;;5027250;28;1283;-83
2020/12/17 15:21:35;;;;;;;;;;;;;;;;;;5032440;28;1396;-83
2020/12/17 15:24:00;;;;;;;;;;;;;;;;;;5033202;28;1317;-82
2020/12/17 15:26:25;;;;;;;;;;;;;;;;;;5033850;28;1312;-83
2020/12/17 15:28:51;;;;;;;;;;;;;;;;;;5034940;28;1204;-82
2020/12/17 15:31:16;;;;;;;;;;;;;;;;;;5017732;28;1327;-83
2020/12/17 15:33:42;;;;;;;;;;;;;;;;;;5014904;28;1307;-83
2020/12/17 15:36:07;;;;;;;;;;;;;;;;;;5016289;28;1890;-83
2020/12/17 15:38:35;;;;;;;;;;;;;;;;;;5014905;28;1204;-83
2020/12/17 15:41:00;;;;;;;;;;;;;;;;;;5015052;28;1275;-83
2020/12/17 15:43:26;;;;;;;;;;;;;;;;;;5016286;28;1309;-83
2020/12/17 15:45:51;;;;;;;;;;;;;;;;;;5014802;28;1762;-83
2020/12/17 15:48:17;;;;;;;;;;;;;;;;;;5014796;28;1428;-83
2020/12/17 15:50:42;;;;;;;;;;;;;;;;;;5016416;28;866;-83
2020/12/17 15:53:07;;;;;;;;;;;;;;;;;;5016132;28;1322;-83
2020/12/17 15:55:32;;;;;;;;;;;;;;;;;;5015963;28;795;-83
2020/12/17 15:57:58;;;;;;;;;;;;;;;;;;5014365;28;1886;-83
2020/12/17 16:00:23;;;;;;;;;;;;;;;;;;5015617;28;909;-83
2020/12/17 16:02:48;;;;;;;;;;;;;;;;;;5014331;28;1337;-83
2020/12/17 16:05:14;;;;;;;;;;;;;;;;;;5015732;28;803;-83
2020/12/17 16:07:39;;;;;;;;;;;;;;;;;;5015722;28;854;-83
2020/12/17 16:10:05;;;;;;;;;;;;;;;;;;5014429;28;1236;-82
2020/12/17 16:12:34;;;;;;;;;;;;;;;;;;5014271;28;1312;-83
2020/12/17 16:15:05;;;;;;;;;;;;;;;;;;5014093;28;1347;-83
2020/12/17 16:17:31;;;;;;;;;;;;;;;;;;5014319;28;1945;-83
2020/12/17 16:19:56;;;;;;;;;;;;;;;;;;5020798;28;1292;-83
2020/12/17 16:22:21;;;;;;;;;;;;;;;;;;5019407;28;1581;-83
2020/12/17 16:24:47;;;;;;;;;;;;;;;;;;5015497;28;893;-84
2020/12/17 16:27:12;;;;;;;;;;;;;;;;;;5014669;28;1325;-84
2020/12/17 16:29:38;;;;;;;;;;;;;;;;;;5018819;28;1148;-84
2020/12/17 16:32:09;;;;;;;;;;;;;;;;;;5050478;28;1453;-83
2020/12/17 16:34:37;;;;;;;;;;;;;;;;;;5033639;28;870;-83
2020/12/17 16:37:02;;;;;;;;;;;;;;;;;;5033267;28;2155;-83
2020/12/17 16:39:27;;;;;;;;;;;;;;;;;;5034794;28;1362;-83
2020/12/17 16:41:53;;;;;;;;;;;;;;;;;;5033216;28;1473;-83
2020/12/17 16:44:18;;;;;;;;;;;;;;;;;;5034704;28;877;-84
2020/12/17 16:46:43;;;;;;;;;;;;;;;;;;5034682;28;798;-84
2020/12/17 16:49:08;;;;;;;;;;;;;;;;;;5034614;28;826;-83
2020/12/17 16:51:34;;;;;;;;;;;;;;;;;;5034428;28;1280;-83
2020/12/17 16:53:59;;;;;;;;;;;;;;;;;;5034561;28;810;-83
2020/12/17 16:56:24;;;;;;;;;;;;;;;;;;5033398;28;1918;-84
2020/12/17 16:58:50;;;;;;;;;;;;;;;;;;5034181;28;857;-83
2020/12/17 17:01:16;;;;;;;;;;;;;;;;;;5034081;28;1379;-83